Time;durP1;ratioP1;P1;durP2;ratioP2;P2;SDS_P1;SDS_P2;PMS_P1;PMS_P2;Temp;Humidity;BMP_temperature;BMP_pressure;BME280_temperature;BME280_humidity;BME280_pressure;Samples;Min_cycle;Max_cycle;Signal;HPM_P1;HPM_P2
2021/12/11 00:02:08;;;;;;;5.30;2.60;;;;;;;;;;5087826;28;20690;-81
2021/12/11 00:04:57;;;;;;;5.20;2.75;;;;;;;;;;5088177;28;20050;-83
2021/12/11 00:07:44;;;;;;;4.07;2.85;;;;;;;;;;5087864;28;20028;-85
2021/12/11 00:10:52;;;;;;;4.90;2.80;;;;;;;;;;5086879;28;20039;-83
2021/12/11 00:13:40;;;;;;;4.95;2.75;;;;;;;;;;5087198;28;20102;-83
2021/12/11 00:16:30;;;;;;;4.32;2.40;;;;;;;;;;5085056;28;20044;-84
2021/12/11 00:19:20;;;;;;;5.85;2.58;;;;;;;;;;5087321;28;20031;-85
2021/12/11 00:22:13;;;;;;;4.68;2.63;;;;;;;;;;5086667;28;20054;-84
2021/12/11 00:25:09;;;;;;;4.68;2.80;;;;;;;;;;5087683;28;20036;-83
2021/12/11 00:28:03;;;;;;;3.85;2.60;;;;;;;;;;5071758;28;20035;-84
2021/12/11 00:30:50;;;;;;;5.07;2.83;;;;;;;;;;5085897;28;20036;-84
2021/12/11 00:33:38;;;;;;;4.07;2.40;;;;;;;;;;5085713;28;20052;-84
2021/12/11 00:36:31;;;;;;;4.00;2.47;;;;;;;;;;5086302;28;20040;-84
2021/12/11 00:39:18;;;;;;;5.38;3.05;;;;;;;;;;5087391;28;20036;-84
2021/12/11 00:42:09;;;;;;;4.10;2.50;;;;;;;;;;5088118;28;20036;-86
2021/12/11 00:44:56;;;;;;;4.93;3.22;;;;;;;;;;5087353;28;20039;-84
2021/12/11 00:47:48;;;;;;;5.22;3.22;;;;;;;;;;5085270;28;20103;-86
2021/12/11 00:50:34;;;;;;;;;;;;;;;;;;5085707;28;20032;-84
2021/12/11 00:53:29;;;;;;;5.03;2.80;;;;;;;;;;5088109;28;19914;-84
2021/12/11 00:56:23;;;;;;;5.57;2.72;;;;;;;;;;5087282;28;20044;-82
2021/12/11 00:59:12;;;;;;;5.00;2.80;;;;;;;;;;5072743;28;20031;-83
2021/12/11 01:02:01;;;;;;;5.22;2.78;;;;;;;;;;5085611;28;20051;-84
2021/12/11 01:04:47;;;;;;;4.65;2.95;;;;;;;;;;5087962;28;20040;-84
2021/12/11 01:07:34;;;;;;;4.47;2.80;;;;;;;;;;5088337;28;20028;-84
2021/12/11 01:10:24;;;;;;;4.07;2.50;;;;;;;;;;5088136;28;20032;-84
2021/12/11 01:13:14;;;;;;;4.78;2.55;;;;;;;;;;5086596;28;20034;-84
2021/12/11 01:16:05;;;;;;;4.40;2.53;;;;;;;;;;5086326;28;20514;-84
2021/12/11 01:18:57;;;;;;;4.88;2.85;;;;;;;;;;5085602;28;20032;-83
2021/12/11 01:21:55;;;;;;;4.22;2.60;;;;;;;;;;5082563;28;20040;-84
2021/12/11 01:24:44;;;;;;;5.38;2.60;;;;;;;;;;5086238;28;20039;-85
2021/12/11 01:27:31;;;;;;;5.25;2.88;;;;;;;;;;5086797;28;20027;-84
2021/12/11 01:30:20;;;;;;;4.55;2.75;;;;;;;;;;5094299;28;20024;-85
2021/12/11 01:33:07;;;;;;;3.85;2.30;;;;;;;;;;5100480;28;20351;-85
2021/12/11 01:35:54;;;;;;;4.53;3.00;;;;;;;;;;5106976;28;20050;-85
2021/12/11 01:38:41;;;;;;;3.85;2.42;;;;;;;;;;5102212;28;20032;-84
2021/12/11 01:41:29;;;;;;;3.95;2.80;;;;;;;;;;5095755;28;20035;-84
2021/12/11 01:44:20;;;;;;;4.53;2.45;;;;;;;;;;5099579;28;20031;-85
2021/12/11 01:47:13;;;;;;;5.28;2.58;;;;;;;;;;5095362;28;20032;-85
2021/12/11 01:50:12;;;;;;;4.43;2.60;;;;;;;;;;5066482;28;20492;-85
2021/12/11 01:53:18;;;;;;;4.72;2.40;;;;;;;;;;5086683;28;20729;-85
2021/12/11 01:56:10;;;;;;;3.88;2.15;;;;;;;;;;5074317;28;20051;-86
2021/12/11 01:59:02;;;;;;;4.53;2.63;;;;;;;;;;5083107;28;20081;-85
2021/12/11 02:01:49;;;;;;;4.35;2.70;;;;;;;;;;5084425;28;20039;-85
2021/12/11 02:04:38;;;;;;;4.32;2.63;;;;;;;;;;5084570;28;20035;-84
2021/12/11 02:07:43;;;;;;;3.97;2.30;;;;;;;;;;5084160;28;20127;-84
2021/12/11 02:10:47;;;;;;;4.15;2.35;;;;;;;;;;5085416;28;20043;-84
2021/12/11 02:13:41;;;;;;;4.55;2.80;;;;;;;;;;5084391;28;20031;-84
2021/12/11 02:16:30;;;;;;;4.38;2.47;;;;;;;;;;5083446;28;20046;-85
2021/12/11 02:19:31;;;;;;;4.00;2.38;;;;;;;;;;5083266;28;20031;-85
2021/12/11 02:22:20;;;;;;;5.00;2.63;;;;;;;;;;5068103;28;20478;-85
2021/12/11 02:25:09;;;;;;;4.53;2.45;;;;;;;;;;5068303;28;20324;-85
2021/12/11 02:27:58;;;;;;;5.13;2.45;;;;;;;;;;5084480;28;20034;-85
2021/12/11 02:31:01;;;;;;;4.20;2.38;;;;;;;;;;5081301;28;20403;-84
2021/12/11 02:33:52;;;;;;;4.93;2.47;;;;;;;;;;5069570;28;20052;-86
2021/12/11 02:36:48;;;;;;;3.88;2.50;;;;;;;;;;5083954;28;20510;-86
2021/12/11 02:39:40;;;;;;;4.82;2.60;;;;;;;;;;5082989;28;20024;-85
2021/12/11 02:42:27;;;;;;;3.88;2.40;;;;;;;;;;5082714;28;20496;-85
2021/12/11 02:45:20;;;;;;;4.15;2.60;;;;;;;;;;5084369;28;20028;-84
2021/12/11 02:48:09;;;;;;;3.92;2.38;;;;;;;;;;5079893;28;20070;-85
2021/12/11 02:51:04;;;;;;;3.78;2.38;;;;;;;;;;5079754;28;20039;-85
2021/12/11 02:54:00;;;;;;;4.53;2.67;;;;;;;;;;5081822;28;20032;-85
2021/12/11 02:56:50;;;;;;;3.22;1.98;;;;;;;;;;5067742;28;20069;-84
2021/12/11 02:59:42;;;;;;;4.63;2.80;;;;;;;;;;5082461;28;20028;-84
2021/12/11 03:02:30;;;;;;;3.20;1.80;;;;;;;;;;5083949;28;20047;-84
2021/12/11 03:05:21;;;;;;;3.22;2.00;;;;;;;;;;5085272;28;20038;-84
2021/12/11 03:08:09;;;;;;;3.58;2.30;;;;;;;;;;5083854;28;20040;-84
2021/12/11 03:10:58;;;;;;;3.05;1.85;;;;;;;;;;5081547;28;20044;-84
2021/12/11 03:13:50;;;;;;;4.22;2.40;;;;;;;;;;5084558;28;20027;-83
2021/12/11 03:16:37;;;;;;;3.30;2.15;;;;;;;;;;5080921;28;20048;-84
2021/12/11 03:19:26;;;;;;;2.88;1.90;;;;;;;;;;5080332;28;20040;-83
2021/12/11 03:22:17;;;;;;;3.80;1.98;;;;;;;;;;5082254;28;20035;-84
2021/12/11 03:25:06;;;;;;;3.50;2.50;;;;;;;;;;5070370;28;20028;-85
2021/12/11 03:27:54;;;;;;;4.03;2.13;;;;;;;;;;5083120;28;20028;-84
2021/12/11 03:30:44;;;;;;;2.75;1.85;;;;;;;;;;5082248;28;20695;-85
2021/12/11 03:33:32;;;;;;;3.33;1.90;;;;;;;;;;5066445;28;20056;-84
2021/12/11 03:36:20;;;;;;;3.17;1.88;;;;;;;;;;5082282;28;20047;-83
2021/12/11 03:39:09;;;;;;;3.13;1.85;;;;;;;;;;5068748;28;20024;-83
2021/12/11 03:41:57;;;;;;;3.72;2.13;;;;;;;;;;5081942;28;20402;-83
2021/12/11 03:44:44;;;;;;;2.92;1.90;;;;;;;;;;5083829;28;20035;-84
2021/12/11 03:47:35;;;;;;;3.35;1.90;;;;;;;;;;5067712;28;20032;-84
2021/12/11 03:50:22;;;;;;;3.80;1.80;;;;;;;;;;5080486;28;20040;-84
2021/12/11 03:53:10;;;;;;;2.50;1.60;;;;;;;;;;5082605;28;20530;-84
2021/12/11 03:55:58;;;;;;;4.10;1.73;;;;;;;;;;5082406;28;20051;-84
2021/12/11 03:58:48;;;;;;;3.40;1.50;;;;;;;;;;5082493;28;20032;-84
2021/12/11 04:01:37;;;;;;;4.07;1.85;;;;;;;;;;5080731;28;20030;-84
2021/12/11 04:04:28;;;;;;;2.45;1.55;;;;;;;;;;5084014;28;20036;-84
2021/12/11 04:07:20;;;;;;;4.50;2.30;;;;;;;;;;5084877;28;20546;-86
2021/12/11 04:10:07;;;;;;;;;;;;;;;;;;5085493;28;20039;-85
2021/12/11 04:12:54;;;;;;;2.92;1.40;;;;;;;;;;5073500;28;20569;-85
2021/12/11 04:15:43;;;;;;;2.67;1.73;;;;;;;;;;5086955;28;20044;-86
2021/12/11 04:18:29;;;;;;;2.60;1.60;;;;;;;;;;5086450;28;20036;-86
2021/12/11 04:21:16;;;;;;;5.35;1.88;;;;;;;;;;5083305;28;20036;-84
2021/12/11 04:24:04;;;;;;;3.28;1.80;;;;;;;;;;5084634;28;20419;-84
2021/12/11 04:26:52;;;;;;;6.45;2.00;;;;;;;;;;5085648;28;20039;-85
2021/12/11 04:29:40;;;;;;;3.08;1.60;;;;;;;;;;5085927;28;20503;-85
2021/12/11 04:32:29;;;;;;;2.03;1.45;;;;;;;;;;5083191;28;20051;-85
2021/12/11 04:35:16;;;;;;;2.03;1.40;;;;;;;;;;5082282;28;20582;-86
2021/12/11 04:38:05;;;;;;;2.92;1.52;;;;;;;;;;5085679;28;20035;-85
2021/12/11 04:40:55;;;;;;;2.55;1.55;;;;;;;;;;5085449;28;20551;-85
2021/12/11 04:43:42;;;;;;;2.53;1.60;;;;;;;;;;5086815;28;20047;-84
2021/12/11 04:46:29;;;;;;;2.72;1.30;;;;;;;;;;5086863;28;20032;-85
2021/12/11 04:49:44;;;;;;;2.55;1.52;;;;;;;;;;5082448;28;20032;-85
2021/12/11 04:53:20;;;;;;;2.50;1.35;;;;;;;;;;5082963;28;20684;-85
2021/12/11 04:58:40;;;;;;;1.85;1.20;;;;;;;;;;5089878;28;20035;-85
2021/12/11 05:01:44;;;;;;;2.60;1.67;;;;;;;;;;5090482;28;20032;-85
2021/12/11 05:10:19;;;;;;;1.63;1.13;;;;;;;;;;5086344;28;20036;-84
2021/12/11 05:13:06;;;;;;;2.28;1.40;;;;;;;;;;5087823;28;20032;-85
2021/12/11 05:15:55;;;;;;;2.67;1.50;;;;;;;;;;5092964;28;20036;-85
2021/12/11 05:18:43;;;;;;;3.58;1.65;;;;;;;;;;5087634;28;20028;-85
2021/12/11 05:21:30;;;;;;;2.40;1.55;;;;;;;;;;5082052;28;20028;-84
2021/12/11 05:24:17;;;;;;;1.75;1.20;;;;;;;;;;5070244;28;20510;-84
2021/12/11 05:27:04;;;;;;;2.58;1.48;;;;;;;;;;5084636;28;20052;-86
2021/12/11 05:29:51;;;;;;;2.13;1.20;;;;;;;;;;5084789;28;20050;-83
2021/12/11 05:32:38;;;;;;;1.90;1.05;;;;;;;;;;5085948;28;20036;-86
2021/12/11 05:35:25;;;;;;;2.13;1.40;;;;;;;;;;5084461;28;20043;-85
2021/12/11 05:38:13;;;;;;;1.58;1.20;;;;;;;;;;5085243;28;20040;-85
2021/12/11 05:41:01;;;;;;;2.45;1.48;;;;;;;;;;5083931;28;20041;-84
2021/12/11 05:43:48;;;;;;;2.78;1.73;;;;;;;;;;5084002;28;20020;-85
2021/12/11 05:46:35;;;;;;;2.53;1.55;;;;;;;;;;5083903;28;20024;-85
2021/12/11 05:49:25;;;;;;;2.13;1.40;;;;;;;;;;5083127;28;20036;-85
2021/12/11 05:52:12;;;;;;;2.58;1.50;;;;;;;;;;5082452;28;20038;-85
2021/12/11 05:54:59;;;;;;;2.97;1.40;;;;;;;;;;5084514;28;20032;-85
2021/12/11 05:57:52;;;;;;;2.83;1.50;;;;;;;;;;5071603;28;20614;-85
2021/12/11 06:00:42;;;;;;;3.65;1.48;;;;;;;;;;5083481;28;20042;-84
2021/12/11 06:03:29;;;;;;;2.03;1.13;;;;;;;;;;5085320;28;20051;-84
2021/12/11 06:06:15;;;;;;;2.25;1.45;;;;;;;;;;5085636;28;20028;-84
2021/12/11 06:09:04;;;;;;;1.95;1.13;;;;;;;;;;5082206;28;20043;-85
2021/12/11 06:11:52;;;;;;;1.92;1.10;;;;;;;;;;5078427;28;20498;-86
2021/12/11 06:14:39;;;;;;;2.38;1.40;;;;;;;;;;5085526;28;20044;-86
2021/12/11 06:17:28;;;;;;;2.13;1.30;;;;;;;;;;5085724;28;20055;-86
2021/12/11 06:20:17;;;;;;;2.05;1.40;;;;;;;;;;5083449;28;20028;-85
2021/12/11 06:23:03;;;;;;;2.58;1.52;;;;;;;;;;5083424;28;20028;-85
2021/12/11 06:25:53;;;;;;;2.08;1.23;;;;;;;;;;5082303;28;20506;-87
2021/12/11 06:28:40;;;;;;;2.80;1.30;;;;;;;;;;5085251;28;20498;-85
2021/12/11 06:31:27;;;;;;;1.80;1.20;;;;;;;;;;5087157;28;20028;-86
2021/12/11 06:34:14;;;;;;;1.67;1.05;;;;;;;;;;5070793;28;20055;-86
2021/12/11 06:37:01;;;;;;;3.03;1.42;;;;;;;;;;5087122;28;20050;-86
2021/12/11 06:39:49;;;;;;;2.28;1.30;;;;;;;;;;5083342;28;20034;-86
2021/12/11 06:42:36;;;;;;;1.65;1.05;;;;;;;;;;5083836;28;20035;-85
2021/12/11 06:45:24;;;;;;;2.30;1.50;;;;;;;;;;5085038;28;20043;-86
2021/12/11 06:48:10;;;;;;;3.15;1.60;;;;;;;;;;5087621;28;20039;-85
2021/12/11 06:50:58;;;;;;;2.70;1.40;;;;;;;;;;5094537;28;20039;-86
2021/12/11 06:53:47;;;;;;;2.75;1.55;;;;;;;;;;5088302;28;20015;-87
2021/12/11 06:56:34;;;;;;;2.05;1.38;;;;;;;;;;5106104;28;20031;-87
2021/12/11 06:59:21;;;;;;;3.60;1.67;;;;;;;;;;5107272;28;20029;-88
2021/12/11 07:02:08;;;;;;;1.80;1.20;;;;;;;;;;5108838;28;20036;-87
2021/12/11 07:04:55;;;;;;;3.35;1.70;;;;;;;;;;5106417;28;20036;-87
2021/12/11 07:07:43;;;;;;;3.20;1.60;;;;;;;;;;5104255;28;20312;-87
2021/12/11 07:10:29;;;;;;;2.13;1.33;;;;;;;;;;5104167;28;20039;-87
2021/12/11 07:13:16;;;;;;;2.17;1.20;;;;;;;;;;5102376;28;20024;-87
2021/12/11 07:16:03;;;;;;;1.75;1.17;;;;;;;;;;5099367;28;20066;-87
2021/12/11 07:18:50;;;;;;;2.40;1.50;;;;;;;;;;5095312;28;20492;-86
2021/12/11 07:21:38;;;;;;;2.53;1.27;;;;;;;;;;5094876;28;20372;-86
2021/12/11 07:24:32;;;;;;;2.60;1.50;;;;;;;;;;5094470;28;20020;-86
2021/12/11 07:27:19;;;;;;;2.70;1.58;;;;;;;;;;5090690;28;20036;-87
2021/12/11 07:30:06;;;;;;;2.10;1.25;;;;;;;;;;5096961;28;20024;-86
2021/12/11 07:32:54;;;;;;;2.05;1.20;;;;;;;;;;5096160;28;20511;-86
2021/12/11 07:35:41;;;;;;;2.35;1.23;;;;;;;;;;5087886;28;20592;-85
2021/12/11 07:38:33;;;;;;;2.45;1.30;;;;;;;;;;5091608;28;20032;-88
2021/12/11 07:41:22;;;;;;;2.22;1.33;;;;;;;;;;5089779;28;20404;-86
2021/12/11 07:44:09;;;;;;;2.90;1.55;;;;;;;;;;5090414;28;20024;-86
2021/12/11 07:46:57;;;;;;;2.13;1.40;;;;;;;;;;5090782;28;20586;-86
2021/12/11 07:49:44;;;;;;;2.17;1.30;;;;;;;;;;5085906;28;20036;-85
2021/12/11 07:52:30;;;;;;;3.03;1.50;;;;;;;;;;5071993;28;20042;-85
2021/12/11 07:55:17;;;;;;;2.30;1.38;;;;;;;;;;5089287;28;20031;-87
2021/12/11 07:58:05;;;;;;;1.73;1.20;;;;;;;;;;5073183;28;20036;-85
2021/12/11 08:00:52;;;;;;;2.65;1.60;;;;;;;;;;5088403;28;20032;-83
2021/12/11 08:03:39;;;;;;;2.55;1.58;;;;;;;;;;5084039;28;20039;-82
2021/12/11 08:06:27;;;;;;;2.47;1.40;;;;;;;;;;5072922;28;20043;-82
2021/12/11 08:09:15;;;;;;;1.98;1.15;;;;;;;;;;5088304;28;20029;-83
2021/12/11 08:12:02;;;;;;;2.05;1.23;;;;;;;;;;5089631;28;20031;-85
2021/12/11 08:14:50;;;;;;;2.53;1.48;;;;;;;;;;5090446;28;20028;-84
2021/12/11 08:17:36;;;;;;;2.92;1.63;;;;;;;;;;5083663;28;20716;-86
2021/12/11 08:20:25;;;;;;;3.42;1.60;;;;;;;;;;5072808;28;20040;-86
2021/12/11 08:23:13;;;;;;;2.53;1.35;;;;;;;;;;5085781;28;20849;-83
2021/12/11 08:26:01;;;;;;;3.47;1.85;;;;;;;;;;5087296;28;20052;-84
2021/12/11 08:28:50;;;;;;;3.13;1.45;;;;;;;;;;5082912;28;20039;-84
2021/12/11 08:31:38;;;;;;;5.10;1.42;;;;;;;;;;5085208;28;20042;-86
2021/12/11 08:34:25;;;;;;;2.10;1.35;;;;;;;;;;5091207;28;20048;-87
2021/12/11 08:37:13;;;;;;;3.60;1.50;;;;;;;;;;5086240;28;20040;-86
2021/12/11 08:40:00;;;;;;;4.00;1.50;;;;;;;;;;5085185;28;20050;-87
2021/12/11 08:42:47;;;;;;;2.20;1.58;;;;;;;;;;5084302;28;20032;-83
2021/12/11 08:45:46;;;;;;;4.80;1.60;;;;;;;;;;5066959;28;20063;-76
2021/12/11 08:48:32;;;;;;;2.75;1.75;;;;;;;;;;5084115;28;20034;-77
2021/12/11 08:51:24;;;;;;;2.85;1.60;;;;;;;;;;5081424;28;20121;-77
2021/12/11 08:54:11;;;;;;;2.75;1.63;;;;;;;;;;5083375;28;20047;-77
2021/12/11 08:56:59;;;;;;;2.10;1.60;;;;;;;;;;5083128;28;20044;-77
2021/12/11 08:59:49;;;;;;;3.05;1.95;;;;;;;;;;5082923;28;20522;-78
2021/12/11 09:02:44;;;;;;;2.67;1.60;;;;;;;;;;5083511;28;20028;-80
2021/12/11 09:05:34;;;;;;;2.58;1.60;;;;;;;;;;5083051;28;20039;-77
2021/12/11 09:08:26;;;;;;;2.35;1.50;;;;;;;;;;5083850;28;20032;-76
2021/12/11 09:11:26;;;;;;;3.25;1.40;;;;;;;;;;5084746;28;20395;-76
2021/12/11 09:14:18;;;;;;;8.75;3.05;;;;;;;;;;5078813;28;20755;-76
2021/12/11 09:17:17;;;;;;;6.72;2.28;;;;;;;;;;5085319;28;20701;-74
2021/12/11 09:20:12;;;;;;;8.98;3.15;;;;;;;;;;5084417;28;20038;-74
2021/12/11 09:23:04;;;;;;;8.52;3.00;;;;;;;;;;5083929;28;20495;-72
2021/12/11 09:25:57;;;;;;;7.38;2.90;;;;;;;;;;5085459;28;20118;-73
2021/12/11 09:28:46;;;;;;;10.20;3.25;;;;;;;;;;5086908;28;20028;-71
2021/12/11 09:31:36;;;;;;;4.65;2.25;;;;;;;;;;5086740;28;20032;-71
2021/12/11 09:34:24;;;;;;;6.68;3.03;;;;;;;;;;5086031;28;20046;-72
2021/12/11 09:37:11;;;;;;;6.93;2.83;;;;;;;;;;5083922;28;20047;-72
2021/12/11 09:40:00;;;;;;;5.10;2.08;;;;;;;;;;5085580;28;20036;-72
2021/12/11 09:42:46;;;;;;;6.82;2.25;;;;;;;;;;5077627;28;20008;-72
2021/12/11 09:45:39;;;;;;;6.03;2.13;;;;;;;;;;5103140;28;20042;-72
2021/12/11 09:48:26;;;;;;;3.22;1.77;;;;;;;;;;5093328;28;20058;-73
2021/12/11 09:51:15;;;;;;;4.28;1.80;;;;;;;;;;5080247;28;20589;-73
2021/12/11 09:54:04;;;;;;;6.18;2.13;;;;;;;;;;5082879;28;20043;-72
2021/12/11 09:56:57;;;;;;;6.55;1.98;;;;;;;;;;5080743;28;20048;-72
2021/12/11 09:59:46;;;;;;;3.55;1.40;;;;;;;;;;5081284;28;20026;-72
2021/12/11 10:02:33;;;;;;;2.53;1.30;;;;;;;;;;5082925;28;20035;-72
2021/12/11 10:05:31;;;;;;;4.32;2.00;;;;;;;;;;5080742;28;20537;-72
2021/12/11 10:11:15;;;;;;;2.75;1.48;;;;;;;;;;5082433;28;20087;-72
2021/12/11 10:14:07;;;;;;;8.20;1.77;;;;;;;;;;5081719;28;20020;-73
2021/12/11 10:16:56;;;;;;;3.45;1.83;;;;;;;;;;5082521;28;20750;-72
2021/12/11 10:19:44;;;;;;;3.58;1.60;;;;;;;;;;5066600;28;20118;-73
2021/12/11 10:22:33;;;;;;;4.18;1.92;;;;;;;;;;5083997;28;20043;-73
2021/12/11 10:25:23;;;;;;;3.40;1.75;;;;;;;;;;5082318;28;20028;-73
2021/12/11 10:28:19;;;;;;;7.15;2.00;;;;;;;;;;5065579;28;20039;-72
2021/12/11 10:31:11;;;;;;;3.17;1.75;;;;;;;;;;5064797;28;20059;-72
2021/12/11 10:33:59;;;;;;;2.75;1.20;;;;;;;;;;5083499;28;20059;-72
2021/12/11 10:36:50;;;;;;;4.22;1.70;;;;;;;;;;5083728;28;20050;-72
2021/12/11 10:39:37;;;;;;;4.75;1.90;;;;;;;;;;5084519;28;20031;-73
2021/12/11 10:42:25;;;;;;;2.97;1.85;;;;;;;;;;5083915;28;20028;-73
2021/12/11 10:45:13;;;;;;;3.75;1.83;;;;;;;;;;5084543;28;20032;-73
2021/12/11 10:48:03;;;;;;;3.65;1.90;;;;;;;;;;5083749;28;20047;-72
2021/12/11 10:50:55;;;;;;;5.82;2.05;;;;;;;;;;5082658;28;20044;-72
2021/12/11 10:53:42;;;;;;;3.40;1.30;;;;;;;;;;5082580;28;20036;-73
2021/12/11 11:03:37;;;;;;;3.00;1.48;;;;;;;;;;4984606;28;20034;-72
2021/12/11 11:06:24;;;;;;;1.70;1.20;;;;;;;;;;4980593;28;20153;-73
2021/12/11 11:09:12;;;;;;;2.50;1.48;;;;;;;;;;4984940;28;20038;-74
2021/12/11 11:12:00;;;;;;;2.58;1.38;;;;;;;;;;5055209;28;20036;-73
2021/12/11 11:14:48;;;;;;;3.70;1.90;;;;;;;;;;5087967;28;20043;-73
2021/12/11 11:17:34;;;;;;;2.80;1.38;;;;;;;;;;5085987;28;20407;-73
2021/12/11 11:20:24;;;;;;;2.70;1.45;;;;;;;;;;5086913;28;20020;-73
2021/12/11 11:23:11;;;;;;;2.42;1.60;;;;;;;;;;5087190;28;20400;-73
2021/12/11 11:26:01;;;;;;;2.60;1.30;;;;;;;;;;5088345;28;20035;-72
2021/12/11 11:28:48;;;;;;;2.67;1.38;;;;;;;;;;5085842;28;20038;-73
2021/12/11 11:31:37;;;;;;;1.90;1.10;;;;;;;;;;5085004;28;20043;-73
2021/12/11 11:34:26;;;;;;;2.72;1.33;;;;;;;;;;5085736;28;20043;-73
2021/12/11 11:37:16;;;;;;;3.33;1.50;;;;;;;;;;5086920;28;20059;-73
2021/12/11 11:40:05;;;;;;;3.50;1.58;;;;;;;;;;5082775;28;20031;-73
2021/12/11 11:42:52;;;;;;;2.33;1.17;;;;;;;;;;5085008;28;20040;-73
2021/12/11 11:45:40;;;;;;;2.70;1.40;;;;;;;;;;5086671;28;20518;-72
2021/12/11 11:48:31;;;;;;;1.95;1.08;;;;;;;;;;5085379;28;20122;-73
2021/12/11 11:51:20;;;;;;;2.88;1.40;;;;;;;;;;5058528;28;20036;-73
2021/12/11 11:54:08;;;;;;;2.47;1.35;;;;;;;;;;5074160;28;20032;-73
2021/12/11 11:56:59;;;;;;;3.08;1.42;;;;;;;;;;5072172;28;20040;-73
2021/12/11 11:59:46;;;;;;;;;;;;;;;;;;5078664;28;20020;-73
2021/12/11 12:02:33;;;;;;;2.33;1.27;;;;;;;;;;5086283;28;19908;-73
2021/12/11 12:05:20;;;;;;;3.40;1.63;;;;;;;;;;5085897;28;20043;-73
2021/12/11 12:08:08;;;;;;;2.35;1.20;;;;;;;;;;5083680;28;20134;-73
2021/12/11 12:10:57;;;;;;;3.80;1.73;;;;;;;;;;5085716;28;20475;-73
2021/12/11 12:13:44;;;;;;;2.20;1.40;;;;;;;;;;5084230;28;20040;-73
2021/12/11 12:16:31;;;;;;;2.47;1.23;;;;;;;;;;5083858;28;20048;-73
2021/12/11 12:19:19;;;;;;;3.22;1.50;;;;;;;;;;5084244;28;20035;-73
2021/12/11 12:22:07;;;;;;;2.88;1.40;;;;;;;;;;5085799;28;20035;-72
2021/12/11 12:24:54;;;;;;;4.25;1.55;;;;;;;;;;5085940;28;20035;-73
2021/12/11 12:27:42;;;;;;;1.85;0.95;;;;;;;;;;5087032;28;20035;-73
2021/12/11 12:30:32;;;;;;;3.30;1.38;;;;;;;;;;5083641;28;20035;-73
2021/12/11 12:33:19;;;;;;;2.08;1.20;;;;;;;;;;5083309;28;20048;-72
2021/12/11 12:36:06;;;;;;;2.35;1.42;;;;;;;;;;5085921;28;20416;-73
2021/12/11 12:38:53;;;;;;;2.83;1.60;;;;;;;;;;5084991;28;20043;-72
2021/12/11 12:41:44;;;;;;;3.95;1.40;;;;;;;;;;5083648;28;20030;-72
2021/12/11 12:44:32;;;;;;;3.60;1.67;;;;;;;;;;5081521;28;20388;-73
2021/12/11 12:47:21;;;;;;;3.63;1.40;;;;;;;;;;5081238;28;20043;-73
2021/12/11 12:50:28;;;;;;;2.70;1.45;;;;;;;;;;5086610;28;20502;-73
2021/12/11 12:53:16;;;;;;;2.13;1.20;;;;;;;;;;5085752;28;20576;-73
2021/12/11 12:56:08;;;;;;;1.90;1.23;;;;;;;;;;5085908;28;20074;-72
2021/12/11 12:58:57;;;;;;;3.90;1.58;;;;;;;;;;5083914;28;20044;-74
2021/12/11 13:01:47;;;;;;;5.03;3.55;;;;;;;;;;5082880;28;20032;-73
2021/12/11 13:04:36;;;;;;;2.58;1.45;;;;;;;;;;5083356;28;20032;-82
2021/12/11 13:07:23;;;;;;;2.72;1.10;;;;;;;;;;5085409;28;20802;-87
2021/12/11 13:10:12;;;;;;;4.13;1.33;;;;;;;;;;5083970;28;20051;-81
2021/12/11 13:13:00;;;;;;;1.65;1.20;;;;;;;;;;5083318;28;20040;-82
2021/12/11 13:15:56;;;;;;;2.58;1.38;;;;;;;;;;5084599;28;20040;-83
2021/12/11 13:18:45;;;;;;;2.47;1.10;;;;;;;;;;5084090;28;20059;-83
2021/12/11 13:21:34;;;;;;;2.78;1.35;;;;;;;;;;5083788;28;20047;-80
2021/12/11 13:24:22;;;;;;;2.17;1.27;;;;;;;;;;5080396;28;20047;-79
2021/12/11 13:27:10;;;;;;;5.20;1.60;;;;;;;;;;5082546;28;20044;-79
2021/12/11 13:29:59;;;;;;;2.85;1.70;;;;;;;;;;5082476;28;20039;-80
2021/12/11 13:32:47;;;;;;;4.13;1.45;;;;;;;;;;5080271;28;20075;-79
2021/12/11 13:35:37;;;;;;;2.00;1.15;;;;;;;;;;5066114;28;20033;-80
2021/12/11 13:38:26;;;;;;;2.88;1.50;;;;;;;;;;5083112;28;20044;-80
2021/12/11 13:41:34;;;;;;;4.60;1.30;;;;;;;;;;5081557;28;20059;-80
2021/12/11 13:44:21;;;;;;;4.97;1.70;;;;;;;;;;5081966;28;20062;-81
2021/12/11 13:47:10;;;;;;;2.08;1.50;;;;;;;;;;5081224;28;20039;-79
2021/12/11 13:49:58;;;;;;;3.95;1.50;;;;;;;;;;5082561;28;20024;-84
2021/12/11 13:52:45;;;;;;;2.90;1.52;;;;;;;;;;5069169;28;20440;-82
2021/12/11 13:55:32;;;;;;;2.17;1.20;;;;;;;;;;5082017;28;20032;-79
2021/12/11 13:58:19;;;;;;;2.97;1.40;;;;;;;;;;5083059;28;20039;-79
2021/12/11 14:01:11;;;;;;;3.67;1.40;;;;;;;;;;5082769;28;20029;-79
2021/12/11 14:03:59;;;;;;;2.88;1.30;;;;;;;;;;5084598;28;20036;-79
2021/12/11 14:06:53;;;;;;;2.28;1.50;;;;;;;;;;5082982;28;20032;-85
2021/12/11 14:09:51;;;;;;;3.63;1.20;;;;;;;;;;5081501;28;20039;-82
2021/12/11 14:12:38;;;;;;;3.35;1.40;;;;;;;;;;5079163;28;20042;-80
2021/12/11 14:15:25;;;;;;;4.35;1.50;;;;;;;;;;5082901;28;20035;-80
2021/12/11 14:18:12;;;;;;;2.97;1.20;;;;;;;;;;5077158;28;20040;-79
2021/12/11 14:20:59;;;;;;;4.20;1.40;;;;;;;;;;5079124;28;20652;-79
2021/12/11 14:23:50;;;;;;;2.78;1.38;;;;;;;;;;5082624;28;20639;-78
2021/12/11 14:26:37;;;;;;;3.50;1.55;;;;;;;;;;5079449;28;20047;-80
2021/12/11 14:29:24;;;;;;;6.43;1.20;;;;;;;;;;5080019;28;20036;-78
2021/12/11 14:32:11;;;;;;;4.28;1.30;;;;;;;;;;5082337;28;20036;-79
2021/12/11 14:34:57;;;;;;;4.70;1.77;;;;;;;;;;5080911;28;20517;-78
2021/12/11 14:37:45;;;;;;;3.47;1.30;;;;;;;;;;5082570;28;20052;-79
2021/12/11 14:40:32;;;;;;;1.90;1.20;;;;;;;;;;5081883;28;20039;-80
2021/12/11 14:43:20;;;;;;;3.97;1.63;;;;;;;;;;5080956;28;20039;-80
2021/12/11 14:46:09;;;;;;;3.13;1.38;;;;;;;;;;5084687;28;21552;-80
2021/12/11 14:48:57;;;;;;;4.72;1.33;;;;;;;;;;5079264;28;20447;-80
2021/12/11 14:51:44;;;;;;;4.60;1.33;;;;;;;;;;5079751;28;20059;-81
2021/12/11 14:54:31;;;;;;;3.72;1.65;;;;;;;;;;5083262;28;20032;-80
2021/12/11 14:57:19;;;;;;;4.10;1.50;;;;;;;;;;5079312;28;20055;-80
2021/12/11 15:00:10;;;;;;;2.30;1.20;;;;;;;;;;5080143;28;20028;-83
2021/12/11 15:02:57;;;;;;;2.13;1.27;;;;;;;;;;5082702;28;20044;-78
2021/12/11 15:05:45;;;;;;;3.72;1.50;;;;;;;;;;5080371;28;20036;-83
2021/12/11 15:08:35;;;;;;;2.25;1.20;;;;;;;;;;5084263;28;20036;-85
2021/12/11 15:11:25;;;;;;;3.45;1.60;;;;;;;;;;5079595;28;20047;-79
2021/12/11 15:14:15;;;;;;;3.03;1.60;;;;;;;;;;5082930;28;20035;-81
2021/12/11 15:17:05;;;;;;;3.50;1.40;;;;;;;;;;5090155;28;20052;-82
2021/12/11 15:19:54;;;;;;;3.00;1.23;;;;;;;;;;5089835;28;20043;-85
2021/12/11 15:22:40;;;;;;;7.05;1.75;;;;;;;;;;5092705;28;20042;-84
2021/12/11 15:25:28;;;;;;;2.17;1.30;;;;;;;;;;5091282;28;20036;-84
2021/12/11 15:28:16;;;;;;;3.65;1.50;;;;;;;;;;5092605;28;20040;-85
2021/12/11 15:31:08;;;;;;;3.17;1.52;;;;;;;;;;5094681;28;20040;-85
2021/12/11 15:33:56;;;;;;;2.78;1.52;;;;;;;;;;5089318;28;20066;-88
2021/12/11 15:36:44;;;;;;;3.75;1.58;;;;;;;;;;5093418;28;20153;-85
2021/12/11 15:39:33;;;;;;;3.38;1.80;;;;;;;;;;5094526;28;20036;-84
2021/12/11 15:42:20;;;;;;;3.15;1.63;;;;;;;;;;5096152;28;20111;-85
2021/12/11 15:45:08;;;;;;;2.38;1.60;;;;;;;;;;5094745;28;20028;-85
2021/12/11 15:47:55;;;;;;;4.38;1.73;;;;;;;;;;5094422;28;20032;-85
2021/12/11 15:50:42;;;;;;;3.17;1.75;;;;;;;;;;5095168;28;20663;-81
2021/12/11 15:53:29;;;;;;;3.15;1.77;;;;;;;;;;5097509;28;20024;-83
2021/12/11 15:56:16;;;;;;;4.93;2.00;;;;;;;;;;5094249;28;20032;-86
2021/12/11 15:59:03;;;;;;;3.47;1.90;;;;;;;;;;5097638;28;20036;-89
2021/12/11 16:01:50;;;;;;;3.35;1.98;;;;;;;;;;5096565;28;20043;-81
2021/12/11 16:04:37;;;;;;;3.95;1.90;;;;;;;;;;5079535;28;20042;-83
2021/12/11 16:07:24;;;;;;;7.03;2.25;;;;;;;;;;5078046;28;20101;-81
2021/12/11 16:10:12;;;;;;;5.22;4.35;;;;;;;;;;5093499;28;20031;-82
2021/12/11 16:12:59;;;;;;;5.57;4.45;;;;;;;;;;5096525;28;20044;-81
2021/12/11 16:15:50;;;;;;;7.45;3.83;;;;;;;;;;5092692;28;20036;-83
2021/12/11 16:18:38;;;;;;;10.45;4.93;;;;;;;;;;5084145;28;20051;-83
2021/12/11 16:21:28;;;;;;;16.90;6.07;;;;;;;;;;5085204;28;20035;-82
2021/12/11 16:24:15;;;;;;;19.33;7.53;;;;;;;;;;5085983;28;20036;-80
2021/12/11 16:27:02;;;;;;;18.17;7.72;;;;;;;;;;5083572;28;20040;-82
2021/12/11 16:29:49;;;;;;;9.88;5.72;;;;;;;;;;5082485;28;20040;-81
2021/12/11 16:32:36;;;;;;;10.55;4.68;;;;;;;;;;5080827;28;20062;-80
2021/12/11 16:35:07;;;;;;;12.80;7.57;;;;;;;;;;5062522;28;20048;-81
2021/12/11 16:37:35;;;;;;;13.50;6.53;;;;;;;;;;5063356;28;20052;-81
2021/12/11 16:40:05;;;;;;;12.95;7.72;;;;;;;;;;5063703;28;20137;-82
2021/12/11 16:42:35;;;;;;;11.80;5.80;;;;;;;;;;5064142;28;20036;-81
2021/12/11 16:45:02;;;;;;;12.23;6.97;;;;;;;;;;5063622;28;20037;-81
2021/12/11 16:47:28;;;;;;;8.00;5.90;;;;;;;;;;5045579;28;20028;-81
2021/12/11 16:49:54;;;;;;;11.43;6.05;;;;;;;;;;5062976;28;20117;-79
2021/12/11 16:52:21;;;;;;;10.80;5.63;;;;;;;;;;5066250;28;20072;-80
2021/12/11 16:54:48;;;;;;;9.27;5.03;;;;;;;;;;5067474;28;20068;-80
2021/12/11 16:57:17;;;;;;;9.95;5.15;;;;;;;;;;5068453;28;20102;-81
2021/12/11 16:59:44;;;;;;;9.60;5.10;;;;;;;;;;5061634;28;20060;-80
2021/12/11 17:02:10;;;;;;;10.52;6.40;;;;;;;;;;5062722;28;20475;-80
2021/12/11 17:04:37;;;;;;;10.43;5.40;;;;;;;;;;5048318;28;20065;-79
2021/12/11 17:07:07;;;;;;;10.10;5.05;;;;;;;;;;5064560;28;20060;-79
2021/12/11 17:09:36;;;;;;;9.98;5.13;;;;;;;;;;5064814;28;20072;-79